Capitol Logistics 2320

Operating for ATN



BGTL
Thule Air Base
Pituffik, GL
KBWI
Baltimore/Washington International Thurgood Marshall Airport
Baltimore, US

Activity Log

Date Flight Route Aircraft Duration
04/13/2021 CPX2320 THT SAVIS TOMAS UK 70N057W 65N059W PEPKI YVP J479 YFM J482 MT N708A REEDO Q844 SYR J59 ZUUCS IZZEE TRISH3 B752 6h 20m

Route Details

Aircraft Information
Primary:
Backup: Not Available
Route Data
Distance: 2255nm
Duration: 5h 04m
Recm'd Route: LANAN MEDPA ADSAM CANEL AVPUT MOATT YDP N704A YBC YYY J561 PQI J55 PVD J225 JFK J79 VILLS LAFLN MIIDY2
Origin Wx: BGTL 141956Z AUTO 10004KT 9999 CLR M19/M20 A3020 RMK AO2 SLP218 T11891198 TSNO $
Dest. Wx: KBWI 142019Z 00000KT 2SM -RA BR SCT008 SCT013 OVC055 15/13 A2997 RMK AO2 SFC VIS 5 P0001 T01500128
Notes: USTRANSCOM CONTRACT FLIGHT | 1X PER WEEK | PAYLOAD LIMITED | ETOPS